createdAt,value
2017-08-08T00:00:53.833Z,8.27
2017-08-08T00:03:20.490Z,9.73
2017-08-08T00:05:47.035Z,8.37
2017-08-08T00:08:13.696Z,7.70
2017-08-08T00:10:40.249Z,8.50
2017-08-08T00:13:07.016Z,11.10
2017-08-08T00:15:33.974Z,7.57
2017-08-08T00:18:00.529Z,8.60
2017-08-08T00:20:27.137Z,9.83
2017-08-08T00:25:25.421Z,7.73
2017-08-08T00:27:51.967Z,9.60
2017-08-08T00:30:18.541Z,8.23
2017-08-08T00:32:45.095Z,9.80
2017-08-08T00:35:12.403Z,9.63
2017-08-08T00:37:38.931Z,8.67
2017-08-08T00:40:05.447Z,9.03
2017-08-08T00:42:32.050Z,8.10
2017-08-08T00:44:58.578Z,8.80
2017-08-08T00:47:25.168Z,8.17
2017-08-08T00:49:51.703Z,8.30
2017-08-08T00:52:21.694Z,11.00
2017-08-08T00:54:48.283Z,8.00
2017-08-08T00:57:14.820Z,9.77
2017-08-08T00:59:41.343Z,7.73
2017-08-08T01:02:08.005Z,8.67
2017-08-08T01:04:39.778Z,7.53
2017-08-08T01:07:06.144Z,8.03
2017-08-08T01:09:32.569Z,7.70
2017-08-08T01:11:59.132Z,10.10
2017-08-08T01:14:25.446Z,7.63
2017-08-08T01:16:51.971Z,7.20
2017-08-08T01:19:18.577Z,7.37
2017-08-08T01:21:45.932Z,7.60
2017-08-08T01:24:12.484Z,7.03
2017-08-08T01:26:39.554Z,10.60
2017-08-08T01:29:05.876Z,7.60
2017-08-08T01:31:32.201Z,7.00
2017-08-08T01:34:00.370Z,7.33
2017-08-08T01:36:27.838Z,7.60
2017-08-08T01:38:54.153Z,7.63
2017-08-08T01:41:20.489Z,10.80
2017-08-08T01:43:48.275Z,8.60
2017-08-08T01:46:14.609Z,9.93
2017-08-08T01:48:41.009Z,9.33
2017-08-08T01:51:07.508Z,7.23
2017-08-08T01:53:37.716Z,8.57
2017-08-08T01:56:04.302Z,12.10
2017-08-08T01:58:30.889Z,10.20
2017-08-08T02:00:57.488Z,7.20
2017-08-08T02:03:30.913Z,8.80
2017-08-08T02:05:57.297Z,9.17
2017-08-08T02:08:23.699Z,11.57
2017-08-08T02:10:50.098Z,10.33
2017-08-08T02:13:16.696Z,8.03
2017-08-08T02:15:43.268Z,8.13
2017-08-08T02:18:09.872Z,11.93
2017-08-08T02:20:40.628Z,9.63
2017-08-08T02:23:07.126Z,7.87
2017-08-08T02:25:34.222Z,7.97
2017-08-08T02:28:00.584Z,8.30
2017-08-08T02:30:26.948Z,8.00
2017-08-08T02:32:53.313Z,10.17
2017-08-08T02:35:19.652Z,7.63
2017-08-08T02:37:46.267Z,7.67
2017-08-08T02:40:12.900Z,8.13
2017-08-08T02:42:39.320Z,7.37
2017-08-08T02:45:05.845Z,9.77
2017-08-08T02:47:32.533Z,7.50
2017-08-08T02:49:58.852Z,10.30
2017-08-08T02:52:25.660Z,12.00
2017-08-08T02:54:52.016Z,10.40
2017-08-08T02:57:18.572Z,8.93
2017-08-08T02:59:45.088Z,7.20
2017-08-08T03:02:19.903Z,8.00
2017-08-08T03:04:46.351Z,7.63
2017-08-08T03:07:12.676Z,7.50
2017-08-08T03:09:38.977Z,8.47
2017-08-08T03:12:05.301Z,10.80
2017-08-08T03:14:31.632Z,6.97
2017-08-08T03:16:57.962Z,10.90
2017-08-08T03:19:24.548Z,12.00
2017-08-08T03:21:50.865Z,8.10
2017-08-08T03:24:17.209Z,7.40
2017-08-08T03:26:43.532Z,7.80
2017-08-08T03:29:09.937Z,7.20
2017-08-08T03:31:36.296Z,9.70
2017-08-08T03:34:02.659Z,9.23
2017-08-08T03:36:28.969Z,9.87
2017-08-08T03:38:55.523Z,9.20
2017-08-08T03:41:21.993Z,7.90
2017-08-08T03:43:48.563Z,8.53
2017-08-08T03:46:15.032Z,9.10
2017-08-08T03:48:41.705Z,9.27
2017-08-08T03:51:08.083Z,11.53
2017-08-08T03:53:34.640Z,8.00
2017-08-08T03:56:01.829Z,8.27
2017-08-08T03:58:28.474Z,8.57
2017-08-08T04:00:55.073Z,8.70
2017-08-08T04:03:21.713Z,8.83
2017-08-08T04:05:48.328Z,7.80
2017-08-08T04:08:14.820Z,9.27
2017-08-08T04:10:41.298Z,8.20
2017-08-08T04:13:09.717Z,7.33
2017-08-08T04:15:36.388Z,7.93
2017-08-08T04:18:02.985Z,11.57
2017-08-08T04:20:32.496Z,13.70
2017-08-08T04:22:59.179Z,8.10
2017-08-08T04:25:25.783Z,8.67
2017-08-08T04:27:52.416Z,14.27
2017-08-08T04:30:19.008Z,9.03
2017-08-08T04:32:45.568Z,7.07
2017-08-08T04:35:12.353Z,9.67
2017-08-08T04:37:39.007Z,7.40
2017-08-08T04:40:05.532Z,7.80
2017-08-08T04:42:32.119Z,9.77
2017-08-08T04:44:58.671Z,9.20
2017-08-08T04:47:27.012Z,7.60
2017-08-08T04:49:53.561Z,8.73
2017-08-08T04:52:20.234Z,12.90
2017-08-08T04:54:46.799Z,8.27
2017-08-08T04:57:13.348Z,8.33
2017-08-08T04:59:39.934Z,9.13
2017-08-08T05:02:06.396Z,9.37
2017-08-08T05:04:33.912Z,8.73
2017-08-08T05:07:00.567Z,9.63
2017-08-08T05:09:27.328Z,9.17
2017-08-08T05:11:53.890Z,7.70
2017-08-08T05:14:20.478Z,7.97
2017-08-08T05:16:47.101Z,10.70
2017-08-08T05:19:13.652Z,7.30
2017-08-08T05:21:48.866Z,7.57
2017-08-08T05:24:15.196Z,11.70
2017-08-08T05:26:41.605Z,10.30
2017-08-08T05:29:08.098Z,8.00
2017-08-08T05:31:34.423Z,7.50
2017-08-08T05:34:00.790Z,9.33
2017-08-08T05:36:27.266Z,8.27
2017-08-08T05:38:53.593Z,9.33
2017-08-08T05:41:19.995Z,9.43
2017-08-08T05:43:46.361Z,14.10
2017-08-08T05:46:12.738Z,8.37
2017-08-08T05:48:39.061Z,8.43
2017-08-08T05:51:05.394Z,8.87
2017-08-08T05:53:31.705Z,7.90
2017-08-08T05:56:01.132Z,8.17
2017-08-08T05:58:27.590Z,10.83
2017-08-08T06:00:53.984Z,9.00
2017-08-08T06:03:20.292Z,7.70
2017-08-08T06:05:46.607Z,13.17
2017-08-08T06:08:12.954Z,9.93
2017-08-08T06:10:39.895Z,9.87
2017-08-08T06:13:06.567Z,10.03
2017-08-08T06:15:32.877Z,12.70
2017-08-08T06:17:59.433Z,9.83
2017-08-08T06:20:25.917Z,8.43
2017-08-08T06:22:52.459Z,8.30
2017-08-08T06:25:19.045Z,11.13
2017-08-08T06:27:45.661Z,10.10
2017-08-08T06:30:12.217Z,9.00
2017-08-08T06:32:38.788Z,9.60
2017-08-08T06:35:05.338Z,10.37
2017-08-08T06:37:31.947Z,9.73
2017-08-08T06:39:58.617Z,9.53
2017-08-08T06:42:25.255Z,9.57
2017-08-08T06:44:51.833Z,9.27
2017-08-08T06:47:18.418Z,8.07
2017-08-08T06:49:44.963Z,8.00
2017-08-08T06:52:11.535Z,7.77
2017-08-08T06:54:38.073Z,9.43
2017-08-08T06:57:04.650Z,5.70
2017-08-08T06:59:31.213Z,9.73
2017-08-08T07:01:59.674Z,10.03
2017-08-08T07:04:26.284Z,6.10
2017-08-08T07:06:52.866Z,5.83
2017-08-08T07:09:19.486Z,7.27
2017-08-08T07:11:46.102Z,9.43
2017-08-08T07:14:12.855Z,7.30
2017-08-08T07:16:39.414Z,8.13
2017-08-08T07:19:05.984Z,9.60
2017-08-08T07:21:33.089Z,7.17
2017-08-08T07:23:59.720Z,9.63
2017-08-08T07:26:26.232Z,11.30
2017-08-08T07:28:53.180Z,6.37
2017-08-08T07:31:20.026Z,8.77
2017-08-08T07:33:46.620Z,6.50
2017-08-08T07:36:13.173Z,8.37
2017-08-08T07:38:39.773Z,5.07
2017-08-08T07:41:06.345Z,5.93
2017-08-08T07:43:32.864Z,8.60
2017-08-08T07:45:59.499Z,4.70
2017-08-08T07:48:26.057Z,7.03
2017-08-08T07:50:52.626Z,5.40
2017-08-08T07:53:19.959Z,5.67
2017-08-08T07:55:46.592Z,9.07
2017-08-08T07:58:13.141Z,4.60
2017-08-08T08:00:41.978Z,6.67
2017-08-08T08:03:09.280Z,4.90
2017-08-08T08:05:35.748Z,9.10
2017-08-08T08:08:03.057Z,6.23
2017-08-08T08:10:29.592Z,7.17
2017-08-08T08:12:56.181Z,6.13
2017-08-08T08:15:26.596Z,5.97
2017-08-08T08:17:53.165Z,5.30
2017-08-08T08:20:19.741Z,5.37
2017-08-08T08:22:46.055Z,6.50
2017-08-08T08:25:12.604Z,5.10
2017-08-08T08:27:39.068Z,4.93
2017-08-08T08:30:09.444Z,6.47
2017-08-08T08:32:36.091Z,4.53
2017-08-08T08:35:05.918Z,4.90
2017-08-08T08:37:32.509Z,6.33
2017-08-08T08:39:59.126Z,4.80
2017-08-08T08:42:25.720Z,4.37
2017-08-08T08:44:53.008Z,6.50
2017-08-08T08:47:19.492Z,5.83
2017-08-08T08:49:48.613Z,6.10
2017-08-08T08:52:15.165Z,5.63
2017-08-08T08:54:41.713Z,6.60
2017-08-08T08:57:08.989Z,6.17
2017-08-08T08:59:35.610Z,4.70
2017-08-08T09:02:02.105Z,11.00
2017-08-08T09:04:28.769Z,6.80
2017-08-08T09:07:00.378Z,7.40
2017-08-08T09:09:26.745Z,5.03
2017-08-08T09:11:53.853Z,4.80
2017-08-08T09:14:20.202Z,9.77
2017-08-08T09:16:46.580Z,5.00
2017-08-08T09:19:12.919Z,7.17
2017-08-08T09:21:43.003Z,5.60
2017-08-08T09:24:09.325Z,5.40
2017-08-08T09:26:35.644Z,4.63
2017-08-08T09:29:02.714Z,5.20
2017-08-08T09:31:29.052Z,4.27
2017-08-08T09:33:55.388Z,5.03
2017-08-08T09:36:21.723Z,4.80
2017-08-08T09:38:48.148Z,6.20
2017-08-08T09:41:14.480Z,5.80
2017-08-08T09:43:40.836Z,5.83
2017-08-08T09:46:08.186Z,8.97
2017-08-08T09:48:34.796Z,5.50
2017-08-08T09:51:01.456Z,5.60
2017-08-08T09:53:28.101Z,5.73
2017-08-08T09:55:54.639Z,8.50
2017-08-08T09:58:21.172Z,5.10
2017-08-08T10:00:51.520Z,6.27
2017-08-08T10:03:18.728Z,6.53
2017-08-08T10:05:45.277Z,5.60
2017-08-08T10:08:11.853Z,5.43
2017-08-08T10:10:38.395Z,6.27
2017-08-08T10:13:04.936Z,5.77
2017-08-08T10:15:34.941Z,7.13
2017-08-08T10:18:01.488Z,5.97
2017-08-08T10:20:27.966Z,5.57
2017-08-08T10:22:54.512Z,6.03
2017-08-08T10:25:21.044Z,5.27
2017-08-08T10:27:47.581Z,10.43
2017-08-08T10:30:14.203Z,5.40
2017-08-08T10:32:40.513Z,6.27
2017-08-08T10:35:11.482Z,6.43
2017-08-08T10:37:38.173Z,6.47
2017-08-08T10:40:04.779Z,7.60
2017-08-08T10:42:31.439Z,6.37
2017-08-08T10:45:02.611Z,5.93
2017-08-08T10:47:28.932Z,6.20
2017-08-08T10:49:56.211Z,6.50
2017-08-08T10:52:28.757Z,6.97
2017-08-08T10:54:55.092Z,6.83
2017-08-08T10:57:21.400Z,5.90
2017-08-08T10:59:47.719Z,6.40
2017-08-08T11:02:14.277Z,7.37
2017-08-08T11:04:40.942Z,6.70
2017-08-08T11:07:09.240Z,8.50
2017-08-08T11:09:35.877Z,6.80
2017-08-08T11:12:02.416Z,7.13
2017-08-08T11:14:29.119Z,7.30
2017-08-08T11:16:55.737Z,6.50
2017-08-08T11:19:22.369Z,6.97
2017-08-08T11:21:52.191Z,7.10
2017-08-08T11:24:19.489Z,6.13
2017-08-08T11:26:46.037Z,11.07
2017-08-08T11:29:13.346Z,6.60
2017-08-08T11:31:39.937Z,7.73
2017-08-08T11:34:06.533Z,7.33
2017-08-08T11:36:35.477Z,6.77
2017-08-08T11:39:03.464Z,6.73
2017-08-08T11:41:30.740Z,6.53
2017-08-08T11:43:57.186Z,6.90
2017-08-08T11:46:23.833Z,7.50
2017-08-08T11:48:50.413Z,6.90
2017-08-08T11:51:16.976Z,6.97
2017-08-08T11:53:43.571Z,7.03
2017-08-08T11:56:16.677Z,7.53
2017-08-08T11:58:43.013Z,6.23
2017-08-08T12:01:09.543Z,8.93
2017-08-08T12:03:36.158Z,6.83
2017-08-08T12:06:02.869Z,6.63
2017-08-08T12:08:29.445Z,6.97
2017-08-08T12:11:00.895Z,6.50
2017-08-08T12:13:27.488Z,9.87
2017-08-08T12:15:54.120Z,7.93
2017-08-08T12:18:20.751Z,8.40
2017-08-08T12:20:47.333Z,7.57
2017-08-08T12:23:13.859Z,7.80
2017-08-08T12:25:40.437Z,8.20
2017-08-08T12:28:07.057Z,8.20
2017-08-08T12:30:33.653Z,7.00
2017-08-08T12:33:00.173Z,7.50
2017-08-08T12:35:27.525Z,10.77
2017-08-08T12:37:54.100Z,8.80
2017-08-08T12:40:20.761Z,8.30
2017-08-08T12:42:47.372Z,8.27
2017-08-08T12:45:13.971Z,8.63
2017-08-08T12:47:40.568Z,7.97
2017-08-08T12:50:07.155Z,7.73
2017-08-08T12:52:33.744Z,8.47
2017-08-08T12:55:00.349Z,8.37
2017-08-08T12:57:26.966Z,8.60
2017-08-08T12:59:53.532Z,7.27
2017-08-08T13:02:22.509Z,7.23
2017-08-08T13:04:49.087Z,8.57
2017-08-08T13:07:15.649Z,8.30
2017-08-08T13:09:42.368Z,8.63
2017-08-08T13:12:08.959Z,7.77
2017-08-08T13:14:35.531Z,7.67
2017-08-08T13:17:02.204Z,9.00
2017-08-08T13:19:32.476Z,7.63
2017-08-08T13:21:59.034Z,7.47
2017-08-08T13:24:25.604Z,7.77
2017-08-08T13:26:52.373Z,8.10
2017-08-08T13:29:18.965Z,7.90
2017-08-08T13:31:45.624Z,7.70
2017-08-08T13:34:12.172Z,7.47
2017-08-08T13:36:38.948Z,7.47
2017-08-08T13:39:05.622Z,7.57
2017-08-08T13:41:33.563Z,6.83
2017-08-08T13:44:00.136Z,7.47
2017-08-08T13:46:26.819Z,10.33
2017-08-08T13:48:53.372Z,7.00
2017-08-08T13:51:19.950Z,7.20
2017-08-08T13:53:46.501Z,6.47
2017-08-08T13:56:15.187Z,7.07
2017-08-08T13:58:41.800Z,6.60
2017-08-08T14:01:08.561Z,6.57
2017-08-08T14:03:35.140Z,5.63
2017-08-08T14:06:02.931Z,6.20
2017-08-08T14:08:29.612Z,6.30
2017-08-08T14:10:57.603Z,6.47
2017-08-08T14:13:29.648Z,6.33
2017-08-08T14:15:56.196Z,7.17
2017-08-08T14:18:22.760Z,6.40
2017-08-08T14:20:49.328Z,7.30
2017-08-08T14:23:15.789Z,6.10
2017-08-08T14:25:47.019Z,6.53
2017-08-08T14:28:13.540Z,6.73
2017-08-08T14:30:40.111Z,7.30
2017-08-08T14:33:06.645Z,6.60
2017-08-08T14:35:33.189Z,6.50
2017-08-08T14:37:59.762Z,7.03
2017-08-08T14:40:29.784Z,7.47
2017-08-08T14:42:56.412Z,6.80
2017-08-08T14:45:22.956Z,7.57
2017-08-08T14:47:49.544Z,7.30
2017-08-08T14:50:16.304Z,8.30
2017-08-08T14:52:42.796Z,7.90
2017-08-08T14:55:13.189Z,8.13
2017-08-08T14:57:39.800Z,7.00
2017-08-08T15:00:06.423Z,6.87
2017-08-08T15:02:32.988Z,6.80
2017-08-08T15:04:59.576Z,6.50
2017-08-08T15:07:26.282Z,7.20
2017-08-08T15:09:52.874Z,7.07
2017-08-08T15:12:19.453Z,5.63
2017-08-08T15:14:46.021Z,6.43
2017-08-08T15:17:12.629Z,6.60
2017-08-08T15:19:41.358Z,6.60
2017-08-08T15:22:07.926Z,6.00
2017-08-08T15:24:34.574Z,7.73
2017-08-08T15:27:01.158Z,7.10
2017-08-08T15:29:27.686Z,5.87
2017-08-08T15:31:54.234Z,7.30
2017-08-08T15:34:20.773Z,6.60
2017-08-08T15:36:47.352Z,6.53
2017-08-08T15:39:13.779Z,6.43
2017-08-08T15:41:40.376Z,6.37
2017-08-08T15:44:06.957Z,7.53
2017-08-08T15:46:33.596Z,7.17
2017-08-08T15:49:00.150Z,6.40
2017-08-08T15:51:33.432Z,6.97
2017-08-08T15:53:59.969Z,5.60
2017-08-08T15:56:27.036Z,5.60
2017-08-08T15:58:53.364Z,5.33
2017-08-08T16:01:19.696Z,5.50
2017-08-08T16:03:46.041Z,5.20
2017-08-08T16:06:12.409Z,6.13
2017-08-08T16:08:38.725Z,6.80
2017-08-08T16:11:05.808Z,6.23
2017-08-08T16:13:32.364Z,5.63
2017-08-08T16:15:58.966Z,5.57
2017-08-08T16:18:25.345Z,6.47
2017-08-08T16:20:51.954Z,6.03
2017-08-08T16:23:18.359Z,5.97
2017-08-08T16:25:44.898Z,5.43
2017-08-08T16:28:11.315Z,5.50
2017-08-08T16:30:37.865Z,5.57
2017-08-08T16:33:04.400Z,5.50
2017-08-08T16:35:34.575Z,6.33
2017-08-08T16:38:00.904Z,5.67
2017-08-08T16:43:01.021Z,6.20
2017-08-08T16:45:27.389Z,6.03
2017-08-08T16:47:53.737Z,6.50
2017-08-08T16:50:20.213Z,6.50
2017-08-08T16:52:47.022Z,6.70
2017-08-08T16:55:13.347Z,6.37
2017-08-08T16:57:39.659Z,2.37
2017-08-08T17:00:06.082Z,3.93
2017-08-08T17:02:32.433Z,1.50
2017-08-08T17:04:58.760Z,1.10
2017-08-08T17:07:25.190Z,4.60
2017-08-08T17:09:51.575Z,2.63
2017-08-08T17:12:18.018Z,3.93
2017-08-08T17:14:44.356Z,3.57
2017-08-08T17:17:10.764Z,2.77
2017-08-08T17:19:37.276Z,1.73
2017-08-08T17:22:03.658Z,2.10
2017-08-08T17:24:30.109Z,4.63
2017-08-08T17:27:02.690Z,5.10
2017-08-08T17:29:29.028Z,2.50
2017-08-08T17:31:55.380Z,2.60
2017-08-08T17:34:21.721Z,3.30
2017-08-08T17:36:48.094Z,3.60
2017-08-08T17:39:14.551Z,3.80
2017-08-08T17:41:40.947Z,5.03
2017-08-08T17:44:07.346Z,4.20
2017-08-08T17:46:33.800Z,4.77
2017-08-08T17:49:00.184Z,5.43
2017-08-08T17:51:26.544Z,5.30
2017-08-08T17:53:52.919Z,5.50
2017-08-08T17:56:19.301Z,5.53
2017-08-08T17:58:45.661Z,6.20
2017-08-08T18:01:12.778Z,7.47
2017-08-08T18:03:39.108Z,7.30
2017-08-08T18:06:05.531Z,9.10
2017-08-08T18:08:31.860Z,8.50
2017-08-08T18:10:58.242Z,10.03
2017-08-08T18:13:24.764Z,10.23
2017-08-08T18:15:51.158Z,9.97
2017-08-08T18:18:17.506Z,9.77
2017-08-08T18:20:43.909Z,12.00
2017-08-08T18:23:10.245Z,11.60
2017-08-08T18:25:36.623Z,13.00
2017-08-08T18:28:02.976Z,11.70
2017-08-08T18:30:29.325Z,12.20
2017-08-08T18:32:55.716Z,12.63
2017-08-08T18:35:22.945Z,13.53
2017-08-08T18:37:49.694Z,14.37
2017-08-08T18:40:16.236Z,17.70
2017-08-08T18:42:43.620Z,19.93
2017-08-08T18:45:09.969Z,20.07
2017-08-08T18:47:36.301Z,21.90
2017-08-08T18:50:02.678Z,20.87
2017-08-08T18:52:29.240Z,22.17
2017-08-08T18:54:55.849Z,22.07
2017-08-08T18:57:23.144Z,19.03
2017-08-08T18:59:49.500Z,15.77
2017-08-08T19:02:16.813Z,16.93
2017-08-08T19:04:43.123Z,15.67
2017-08-08T19:07:10.185Z,14.30
2017-08-08T19:09:37.208Z,13.80
2017-08-08T19:12:04.363Z,12.40
2017-08-08T19:14:30.821Z,11.77
2017-08-08T19:16:57.158Z,11.33
2017-08-08T19:19:23.490Z,12.07
2017-08-08T19:21:49.840Z,12.27
2017-08-08T19:24:16.412Z,14.20
2017-08-08T19:26:43.031Z,11.87
2017-08-08T19:29:09.574Z,12.37
2017-08-08T19:31:36.237Z,13.07
2017-08-08T19:34:02.592Z,12.13
2017-08-08T19:36:29.934Z,13.43
2017-08-08T19:38:57.259Z,12.77
2017-08-08T19:41:23.632Z,12.57
2017-08-08T19:43:49.980Z,12.73
2017-08-08T19:46:16.397Z,12.87
2017-08-08T19:48:42.757Z,13.07
2017-08-08T19:51:09.298Z,13.50
2017-08-08T19:53:35.858Z,14.47
2017-08-08T19:56:02.402Z,14.30
2017-08-08T19:58:29.049Z,13.67
2017-08-08T20:00:56.749Z,15.07
2017-08-08T20:03:23.361Z,14.57
2017-08-08T20:05:49.933Z,15.90
2017-08-08T20:08:16.579Z,14.57
2017-08-08T20:10:43.261Z,15.00
2017-08-08T20:13:09.993Z,15.63
2017-08-08T20:15:36.599Z,14.13
2017-08-08T20:18:03.380Z,15.30
2017-08-08T20:20:30.009Z,14.87
2017-08-08T20:22:56.602Z,15.53
2017-08-08T20:25:23.332Z,15.93
2017-08-08T20:27:49.931Z,16.93
2017-08-08T20:30:16.489Z,16.30
2017-08-08T20:32:43.091Z,17.47
2017-08-08T20:35:09.632Z,17.40
2017-08-08T20:37:36.232Z,16.83
2017-08-08T20:40:03.695Z,18.13
2017-08-08T20:42:30.305Z,17.50
2017-08-08T20:44:56.896Z,17.87
2017-08-08T20:47:23.478Z,19.77
2017-08-08T20:49:50.125Z,19.93
2017-08-08T20:52:16.740Z,25.13
2017-08-08T20:54:43.271Z,20.63
2017-08-08T20:57:09.821Z,24.23
2017-08-08T20:59:37.218Z,20.10
2017-08-08T21:02:03.781Z,22.13
2017-08-08T21:04:30.364Z,19.77
2017-08-08T21:06:57.697Z,20.00
2017-08-08T21:09:24.465Z,21.10
2017-08-08T21:11:50.998Z,19.63
2017-08-08T21:14:17.557Z,22.03
2017-08-08T21:16:44.115Z,20.10
2017-08-08T21:19:11.485Z,21.60
2017-08-08T21:21:37.823Z,20.63
2017-08-08T21:24:04.246Z,21.63
2017-08-08T21:26:30.804Z,21.60
2017-08-08T21:28:57.251Z,20.70
2017-08-08T21:31:23.846Z,21.77
2017-08-08T21:33:50.569Z,22.33
2017-08-08T21:36:17.193Z,22.00
2017-08-08T21:38:43.788Z,25.63
2017-08-08T21:41:10.401Z,24.40
2017-08-08T21:43:37.024Z,25.07
2017-08-08T21:46:03.413Z,26.57
2017-08-08T21:48:29.995Z,24.53
2017-08-08T21:50:56.369Z,24.00
2017-08-08T21:53:23.797Z,25.00
2017-08-08T21:55:50.410Z,24.97
2017-08-08T21:58:16.999Z,27.07
2017-08-08T22:00:43.584Z,25.70
2017-08-08T22:03:10.152Z,27.10
2017-08-08T22:05:37.551Z,30.83
2017-08-08T22:08:04.105Z,28.40
2017-08-08T22:10:30.706Z,33.10
2017-08-08T22:12:57.746Z,29.70
2017-08-08T22:15:24.876Z,35.67
2017-08-08T22:17:51.307Z,34.93
2017-08-08T22:20:17.935Z,36.60
2017-08-08T22:22:44.546Z,38.53
2017-08-08T22:25:11.065Z,34.47
2017-08-08T22:27:38.413Z,34.50
2017-08-08T22:30:06.114Z,32.60
2017-08-08T22:32:33.095Z,33.77
2017-08-08T22:35:00.813Z,39.37
2017-08-08T22:37:27.315Z,33.37
2017-08-08T22:39:53.888Z,39.43
2017-08-08T22:42:21.388Z,36.10
2017-08-08T22:44:48.008Z,40.23
2017-08-08T22:47:14.656Z,40.43
2017-08-08T22:49:41.271Z,37.07
2017-08-08T22:52:07.875Z,37.60
2017-08-08T22:54:34.593Z,39.17
2017-08-08T22:57:01.223Z,41.37
2017-08-08T22:59:27.822Z,38.67
2017-08-08T23:01:54.512Z,38.10
2017-08-08T23:04:20.988Z,38.70
2017-08-08T23:06:47.606Z,37.00
2017-08-08T23:09:14.475Z,36.77
2017-08-08T23:11:41.112Z,41.23
2017-08-08T23:14:07.693Z,36.60
2017-08-08T23:16:34.288Z,35.80
2017-08-08T23:19:00.849Z,36.63
2017-08-08T23:21:27.748Z,33.10
2017-08-08T23:23:54.972Z,34.80
2017-08-08T23:26:21.604Z,38.10
2017-08-08T23:28:48.182Z,40.50
2017-08-08T23:31:14.776Z,43.37
2017-08-08T23:33:41.776Z,38.67
2017-08-08T23:36:08.974Z,46.17
2017-08-08T23:38:35.300Z,41.17
2017-08-08T23:41:01.675Z,45.70
2017-08-08T23:43:28.261Z,44.10
2017-08-08T23:45:54.814Z,45.03
2017-08-08T23:48:21.406Z,48.23
2017-08-08T23:50:47.961Z,45.57
2017-08-08T23:53:14.541Z,41.60
2017-08-08T23:55:49.453Z,43.73
2017-08-08T23:58:15.796Z,41.47
